createdAt,value
2022-10-09T00:01:21.427Z,71.45
2022-10-09T00:03:51.707Z,71.16
2022-10-09T00:06:25.608Z,71.26
2022-10-09T00:08:53.287Z,71.43
2022-10-09T00:11:25.141Z,71.35
2022-10-09T00:13:54.106Z,71.10
2022-10-09T00:16:22.747Z,71.38
2022-10-09T00:18:50.947Z,71.52
2022-10-09T00:21:32.007Z,71.34
2022-10-09T00:24:02.372Z,71.38
2022-10-09T00:26:29.827Z,71.61
2022-10-09T00:28:57.412Z,71.41
2022-10-09T00:31:24.670Z,71.38
2022-10-09T00:33:51.627Z,71.14
2022-10-09T00:36:22.316Z,71.27
2022-10-09T00:38:50.261Z,71.20
2022-10-09T00:41:25.310Z,71.27
2022-10-09T00:44:00.061Z,71.17
2022-10-09T00:46:44.941Z,71.58
2022-10-09T00:49:32.631Z,71.41
2022-10-09T00:52:06.326Z,71.66
2022-10-09T00:54:37.480Z,71.45
2022-10-09T00:57:04.532Z,71.50
2022-10-09T00:59:32.463Z,71.34
2022-10-09T01:01:59.839Z,71.70
2022-10-09T01:04:27.000Z,71.69
2022-10-09T01:07:15.430Z,71.73
2022-10-09T01:10:08.351Z,71.69
2022-10-09T01:13:11.645Z,71.60
2022-10-09T01:16:18.324Z,71.40
2022-10-09T01:19:16.300Z,71.63
2022-10-09T01:22:02.184Z,71.59
2022-10-09T01:25:01.917Z,71.62
2022-10-09T01:27:30.837Z,71.69
2022-10-09T01:30:08.663Z,71.85
2022-10-09T01:32:43.957Z,71.89
2022-10-09T01:35:14.222Z,71.79
2022-10-09T01:37:45.642Z,71.32
2022-10-09T01:40:16.882Z,71.38
2022-10-09T01:42:47.306Z,71.57
2022-10-09T01:45:15.993Z,71.29
2022-10-09T01:47:43.407Z,71.43
2022-10-09T01:50:13.209Z,71.58
2022-10-09T01:53:02.173Z,71.41
2022-10-09T01:55:51.383Z,71.48
2022-10-09T01:58:41.924Z,71.48
2022-10-09T02:01:25.338Z,71.43
2022-10-09T02:03:54.526Z,71.44
2022-10-09T02:06:22.481Z,71.63
2022-10-09T02:08:52.283Z,71.45
2022-10-09T02:11:19.424Z,71.67
2022-10-09T02:13:49.716Z,71.34
2022-10-09T02:16:39.206Z,71.18
2022-10-09T02:19:22.774Z,71.46
2022-10-09T02:22:06.746Z,71.19
2022-10-09T02:24:34.577Z,71.64
2022-10-09T02:27:02.879Z,71.60
2022-10-09T02:29:29.992Z,71.25
2022-10-09T02:31:56.938Z,71.67
2022-10-09T02:34:24.001Z,71.50
2022-10-09T02:36:51.405Z,71.31
2022-10-09T02:39:18.821Z,71.40
2022-10-09T02:41:45.797Z,71.71
2022-10-09T02:44:12.746Z,71.74
2022-10-09T02:46:39.810Z,71.37
2022-10-09T02:49:07.360Z,71.37
2022-10-09T02:51:34.889Z,71.38
2022-10-09T02:54:02.172Z,71.33
2022-10-09T02:56:29.597Z,71.52
2022-10-09T02:58:56.582Z,71.53
2022-10-09T03:01:23.983Z,71.44
2022-10-09T03:03:51.084Z,71.73
2022-10-09T03:06:22.248Z,71.41
2022-10-09T03:08:51.815Z,71.69
2022-10-09T03:11:21.374Z,71.75
2022-10-09T03:13:48.930Z,71.38
2022-10-09T03:16:20.766Z,71.67
2022-10-09T03:18:49.215Z,71.72
2022-10-09T03:21:23.022Z,71.60
2022-10-09T03:23:51.028Z,71.81
2022-10-09T03:26:22.384Z,71.53
2022-10-09T03:28:51.657Z,71.53
2022-10-09T03:31:47.015Z,71.34
2022-10-09T03:34:10.865Z,71.64
2022-10-09T03:36:38.008Z,71.49
2022-10-09T03:39:05.090Z,71.49
2022-10-09T03:41:32.119Z,71.33
2022-10-09T03:43:59.251Z,71.42
2022-10-09T03:46:26.227Z,71.70
2022-10-09T03:48:53.224Z,71.55
2022-10-09T03:51:20.214Z,71.75
2022-10-09T03:53:47.272Z,71.56
2022-10-09T03:56:14.242Z,71.95
2022-10-09T03:58:41.360Z,72.01
2022-10-09T04:01:08.522Z,71.55
2022-10-09T04:03:35.596Z,71.75
2022-10-09T04:06:02.572Z,71.41
2022-10-09T04:08:29.529Z,71.95
2022-10-09T04:11:01.235Z,72.01
2022-10-09T04:13:28.484Z,72.02
2022-10-09T04:15:56.475Z,72.02
2022-10-09T04:18:24.124Z,71.76
2022-10-09T04:20:53.499Z,71.64
2022-10-09T04:23:23.593Z,71.73
2022-10-09T04:25:59.522Z,71.91
2022-10-09T04:28:28.386Z,71.93
2022-10-09T04:30:57.355Z,71.86
2022-10-09T04:33:26.463Z,71.92
2022-10-09T04:35:55.089Z,71.71
2022-10-09T04:38:23.449Z,71.65
2022-10-09T04:41:05.806Z,71.89
2022-10-09T04:43:34.937Z,71.66
2022-10-09T04:46:12.501Z,71.62
2022-10-09T04:48:42.436Z,71.66
2022-10-09T04:51:10.234Z,71.60
2022-10-09T04:53:38.442Z,71.64
2022-10-09T04:56:12.423Z,71.34
2022-10-09T04:58:40.813Z,71.81
2022-10-09T05:01:17.702Z,71.71
2022-10-09T05:03:44.891Z,71.80
2022-10-09T05:06:14.166Z,71.81
2022-10-09T05:08:42.437Z,71.50
2022-10-09T05:11:14.743Z,71.45
2022-10-09T05:13:46.203Z,71.52
2022-10-09T05:16:17.607Z,71.32
2022-10-09T05:18:53.664Z,71.63
2022-10-09T05:21:21.435Z,71.57
2022-10-09T05:23:49.516Z,71.67
2022-10-09T05:26:19.975Z,71.43
2022-10-09T05:28:48.022Z,71.58
2022-10-09T05:31:26.144Z,71.36
2022-10-09T05:33:54.683Z,71.66
2022-10-09T05:36:22.094Z,71.43
2022-10-09T05:38:49.432Z,71.69
2022-10-09T05:41:19.090Z,71.97
2022-10-09T05:43:48.526Z,71.60
2022-10-09T05:46:21.086Z,71.88
2022-10-09T05:49:05.318Z,71.94
2022-10-09T05:51:44.348Z,71.70
2022-10-09T05:54:16.872Z,71.74
2022-10-09T05:56:45.225Z,71.87
2022-10-09T05:59:19.945Z,71.76
2022-10-09T06:01:50.750Z,72.02
2022-10-09T06:04:23.240Z,71.80
2022-10-09T06:06:51.364Z,71.47
2022-10-09T06:09:23.082Z,71.64
2022-10-09T06:11:51.538Z,71.70
2022-10-09T06:14:21.984Z,71.70
2022-10-09T06:16:49.785Z,71.80
2022-10-09T06:19:19.441Z,71.76
2022-10-09T06:21:47.647Z,72.08
2022-10-09T06:24:29.057Z,71.88
2022-10-09T06:26:57.907Z,72.15
2022-10-09T06:29:25.117Z,72.26
2022-10-09T06:31:52.171Z,71.92
2022-10-09T06:34:19.533Z,72.38
2022-10-09T06:36:46.479Z,72.27
2022-10-09T06:39:13.458Z,72.71
2022-10-09T06:41:40.987Z,72.44
2022-10-09T06:44:16.068Z,72.62
2022-10-09T06:46:45.683Z,72.64
2022-10-09T06:49:13.092Z,72.96
2022-10-09T06:51:40.222Z,73.03
2022-10-09T06:54:14.426Z,73.33
2022-10-09T06:56:41.725Z,73.44
2022-10-09T06:59:11.172Z,73.63
2022-10-09T07:01:38.272Z,73.80
2022-10-09T07:04:11.116Z,74.00
2022-10-09T07:06:42.236Z,73.98
2022-10-09T07:09:12.840Z,74.29
2022-10-09T07:11:45.956Z,74.33
2022-10-09T07:14:15.943Z,74.69
2022-10-09T07:16:47.499Z,74.75
2022-10-09T07:19:17.505Z,75.01
2022-10-09T07:21:49.119Z,75.08
2022-10-09T07:24:17.665Z,75.31
2022-10-09T07:26:46.475Z,75.28
2022-10-09T07:29:16.795Z,75.23
2022-10-09T07:31:44.130Z,75.56
2022-10-09T07:34:11.235Z,75.77
2022-10-09T07:36:38.229Z,75.57
2022-10-09T07:39:05.867Z,75.76
2022-10-09T07:41:33.127Z,75.91
2022-10-09T07:44:00.124Z,76.02
2022-10-09T07:46:33.268Z,75.88
2022-10-09T07:49:01.412Z,76.02
2022-10-09T07:51:30.139Z,76.28
2022-10-09T07:53:58.271Z,75.98
2022-10-09T07:56:29.452Z,76.09
2022-10-09T07:59:03.751Z,76.68
2022-10-09T08:01:33.570Z,76.35
2022-10-09T08:04:02.738Z,76.70
2022-10-09T08:06:30.297Z,76.68
2022-10-09T08:09:00.217Z,76.44
2022-10-09T08:11:29.832Z,76.72
2022-10-09T08:13:57.432Z,76.80
2022-10-09T08:16:26.177Z,76.56
2022-10-09T08:19:01.190Z,77.12
2022-10-09T08:21:28.754Z,76.83
2022-10-09T08:23:58.808Z,76.73
2022-10-09T08:26:28.894Z,76.67
2022-10-09T08:29:00.039Z,76.41
2022-10-09T08:31:28.409Z,76.40
2022-10-09T08:33:57.987Z,76.39
2022-10-09T08:36:26.491Z,76.47
2022-10-09T08:38:54.449Z,76.59
2022-10-09T08:41:42.202Z,76.36
2022-10-09T08:44:46.797Z,76.22
2022-10-09T08:47:21.075Z,76.23
2022-10-09T08:50:11.056Z,75.74
2022-10-09T08:52:53.471Z,75.86
2022-10-09T08:55:45.795Z,76.29
2022-10-09T08:58:21.418Z,76.23
2022-10-09T09:01:33.014Z,75.95
2022-10-09T09:04:54.462Z,75.55
2022-10-09T09:08:05.581Z,75.89
2022-10-09T09:11:07.211Z,75.97
2022-10-09T09:13:52.794Z,75.17
2022-10-09T09:16:45.706Z,75.02
2022-10-09T09:19:40.726Z,74.76
2022-10-09T09:22:14.384Z,74.50
2022-10-09T09:24:55.213Z,74.95
2022-10-09T09:27:33.848Z,74.26
2022-10-09T09:30:32.859Z,73.94
2022-10-09T09:33:45.008Z,74.20
2022-10-09T09:36:31.288Z,73.49
2022-10-09T09:41:45.965Z,73.49
2022-10-09T09:44:15.074Z,73.18
2022-10-09T09:46:43.823Z,72.94
2022-10-09T09:49:27.203Z,72.71
2022-10-09T09:51:58.452Z,72.63
2022-10-09T09:54:30.511Z,72.23
2022-10-09T09:57:12.815Z,72.74
2022-10-09T09:59:45.915Z,71.71
2022-10-09T10:02:26.213Z,71.72
2022-10-09T10:04:59.599Z,71.52
2022-10-09T10:07:36.225Z,71.04
2022-10-09T10:10:25.867Z,71.25
2022-10-09T10:12:53.402Z,70.68
2022-10-09T10:15:33.366Z,70.19
2022-10-09T10:18:07.628Z,69.57
2022-10-09T10:20:51.339Z,69.89
2022-10-09T10:23:40.752Z,69.74
2022-10-09T10:26:35.382Z,68.64
2022-10-09T10:29:17.419Z,68.75
2022-10-09T10:31:54.428Z,69.21
2022-10-09T10:34:31.950Z,69.42
2022-10-09T10:37:47.785Z,69.30
2022-10-09T10:40:53.965Z,69.41
2022-10-09T10:43:43.653Z,68.60
2022-10-09T10:46:49.026Z,68.29
2022-10-09T10:49:23.195Z,68.35
2022-10-09T10:52:35.272Z,68.25
2022-10-09T10:55:45.620Z,67.31
2022-10-09T10:58:31.441Z,67.00
2022-10-09T11:01:16.456Z,67.44
2022-10-09T11:04:34.651Z,67.00
2022-10-09T11:07:10.248Z,66.63
2022-10-09T11:10:03.453Z,66.80
2022-10-09T11:12:54.046Z,65.82
2022-10-09T11:15:34.294Z,66.64
2022-10-09T11:18:06.670Z,66.05
2022-10-09T11:20:57.913Z,65.10
2022-10-09T11:24:12.495Z,64.63
2022-10-09T11:27:09.624Z,64.54
2022-10-09T11:30:00.435Z,65.08
2022-10-09T11:32:59.374Z,63.99
2022-10-09T11:35:42.047Z,64.32
2022-10-09T11:38:37.245Z,64.06
2022-10-09T11:41:07.439Z,64.39
2022-10-09T11:44:24.547Z,64.53
2022-10-09T11:47:20.471Z,64.11
2022-10-09T11:50:02.412Z,63.72
2022-10-09T11:52:58.559Z,64.03
2022-10-09T11:55:29.871Z,63.61
2022-10-09T11:58:09.344Z,63.41
2022-10-09T12:00:38.507Z,64.09
2022-10-09T12:03:07.613Z,62.88
2022-10-09T12:05:46.190Z,64.00
2022-10-09T12:08:25.700Z,62.35
2022-10-09T12:10:59.592Z,62.06
2022-10-09T12:13:41.766Z,62.16
2022-10-09T12:16:32.429Z,62.28
2022-10-09T12:19:03.829Z,61.94
2022-10-09T12:21:48.637Z,61.64
2022-10-09T12:24:27.895Z,61.56
2022-10-09T12:26:59.704Z,62.00
2022-10-09T12:29:43.302Z,61.55
2022-10-09T12:32:37.448Z,60.94
2022-10-09T12:35:39.213Z,60.80
2022-10-09T12:38:26.090Z,60.64
2022-10-09T12:40:55.661Z,60.04
2022-10-09T12:43:24.570Z,58.89
2022-10-09T12:45:53.732Z,59.37
2022-10-09T12:48:25.868Z,59.30
2022-10-09T12:50:54.239Z,58.54
2022-10-09T12:53:27.844Z,57.43
2022-10-09T12:56:00.917Z,58.05
2022-10-09T12:58:39.396Z,58.49
2022-10-09T13:01:12.367Z,59.35
2022-10-09T13:03:41.929Z,58.67
2022-10-09T13:06:21.881Z,57.69
2022-10-09T13:09:02.556Z,57.67
2022-10-09T13:11:40.625Z,57.47
2022-10-09T13:14:41.401Z,57.48
2022-10-09T13:17:33.417Z,57.13
2022-10-09T13:20:12.391Z,57.53
2022-10-09T13:22:39.872Z,57.87
2022-10-09T13:25:07.623Z,57.63
2022-10-09T13:27:39.473Z,57.04
2022-10-09T13:30:07.641Z,56.59
2022-10-09T13:32:34.582Z,56.80
2022-10-09T13:35:01.529Z,57.31
2022-10-09T13:37:28.536Z,56.06
2022-10-09T13:39:58.886Z,55.58
2022-10-09T13:42:31.364Z,56.54
2022-10-09T13:44:58.407Z,56.26
2022-10-09T13:47:25.438Z,56.16
2022-10-09T13:49:52.488Z,55.63
2022-10-09T13:52:19.474Z,55.13
2022-10-09T13:54:46.471Z,54.86
2022-10-09T13:57:13.556Z,55.22
2022-10-09T13:59:40.489Z,54.80
2022-10-09T14:02:07.989Z,54.34
2022-10-09T14:04:34.927Z,54.99
2022-10-09T14:07:01.977Z,54.27
2022-10-09T14:09:28.975Z,54.70
2022-10-09T14:11:56.040Z,55.45
2022-10-09T14:14:23.066Z,54.72
2022-10-09T14:16:50.888Z,55.00
2022-10-09T14:19:18.143Z,54.58
2022-10-09T14:21:46.891Z,54.13
2022-10-09T14:24:14.912Z,54.62
2022-10-09T14:26:41.868Z,53.80
2022-10-09T14:29:13.009Z,54.65
2022-10-09T14:31:40.564Z,54.04
2022-10-09T14:34:07.600Z,54.23
2022-10-09T14:36:37.179Z,54.33
2022-10-09T14:39:04.588Z,53.92
2022-10-09T14:41:36.818Z,53.78
2022-10-09T14:44:05.017Z,54.11
2022-10-09T14:46:34.037Z,54.58
2022-10-09T14:49:07.284Z,53.83
2022-10-09T14:51:37.864Z,53.89
2022-10-09T14:54:06.776Z,54.41
2022-10-09T14:56:34.490Z,54.34
2022-10-09T14:59:01.983Z,54.54
2022-10-09T15:01:30.040Z,54.92
2022-10-09T15:03:57.304Z,54.62
2022-10-09T15:06:24.328Z,53.59
2022-10-09T15:08:55.510Z,53.96
2022-10-09T15:11:23.321Z,54.05
2022-10-09T15:13:50.352Z,53.51
2022-10-09T15:16:18.837Z,53.67
2022-10-09T15:18:49.517Z,53.21
2022-10-09T15:21:24.196Z,53.63
2022-10-09T15:23:56.952Z,53.63
2022-10-09T15:26:26.461Z,53.83
2022-10-09T15:28:53.874Z,53.37
2022-10-09T15:31:33.895Z,53.96
2022-10-09T15:34:01.602Z,54.01
2022-10-09T15:36:36.120Z,54.28
2022-10-09T15:39:07.260Z,53.54
2022-10-09T15:41:37.950Z,53.94
2022-10-09T15:44:17.951Z,54.01
2022-10-09T15:46:47.062Z,54.68
2022-10-09T15:49:14.317Z,54.95
2022-10-09T15:51:41.583Z,55.73
2022-10-09T15:54:12.008Z,55.62
2022-10-09T15:56:40.377Z,56.08
2022-10-09T15:59:11.047Z,56.27
2022-10-09T16:01:38.218Z,56.28
2022-10-09T16:04:05.271Z,56.96
2022-10-09T16:06:32.232Z,56.88
2022-10-09T16:08:59.810Z,57.09
2022-10-09T16:11:27.188Z,57.18
2022-10-09T16:13:55.608Z,57.20
2022-10-09T16:16:25.673Z,57.08
2022-10-09T16:18:53.379Z,57.36
2022-10-09T16:21:29.038Z,57.74
2022-10-09T16:23:59.303Z,57.52
2022-10-09T16:26:29.353Z,58.11
2022-10-09T16:28:57.016Z,58.40
2022-10-09T16:31:28.301Z,58.44
2022-10-09T16:33:56.543Z,58.79
2022-10-09T16:36:23.766Z,59.09
2022-10-09T16:38:50.806Z,59.07
2022-10-09T16:41:20.677Z,59.65
2022-10-09T16:43:52.408Z,60.00
2022-10-09T16:49:05.751Z,60.26
2022-10-09T16:51:35.869Z,60.64
2022-10-09T16:54:05.625Z,60.91
2022-10-09T16:56:38.519Z,61.18
2022-10-09T16:59:12.249Z,61.20
2022-10-09T17:01:43.738Z,61.50
2022-10-09T17:04:12.825Z,61.48
2022-10-09T17:06:44.601Z,61.56
2022-10-09T17:09:14.245Z,62.20
2022-10-09T17:11:42.427Z,62.04
2022-10-09T17:14:09.510Z,62.57
2022-10-09T17:16:39.064Z,62.54
2022-10-09T17:19:06.549Z,62.89
2022-10-09T17:21:34.912Z,62.73
2022-10-09T17:24:05.129Z,62.71
2022-10-09T17:26:32.508Z,63.17
2022-10-09T17:29:00.931Z,63.30
2022-10-09T17:31:29.540Z,63.24
2022-10-09T17:34:03.024Z,63.53
2022-10-09T17:36:34.649Z,63.56
2022-10-09T17:39:02.284Z,64.02
2022-10-09T17:41:30.115Z,64.11
2022-10-09T17:43:57.653Z,64.47
2022-10-09T17:46:26.804Z,64.32
2022-10-09T17:48:55.974Z,64.50
2022-10-09T17:51:35.825Z,64.42
2022-10-09T17:54:12.656Z,64.57
2022-10-09T17:56:40.286Z,64.79
2022-10-09T17:59:09.044Z,64.52
2022-10-09T18:01:36.966Z,65.02
2022-10-09T18:04:04.235Z,64.69
2022-10-09T18:06:34.855Z,65.07
2022-10-09T18:09:03.333Z,64.99
2022-10-09T18:11:30.639Z,65.09
2022-10-09T18:13:57.825Z,64.89
2022-10-09T18:16:36.236Z,65.30
2022-10-09T18:19:18.276Z,65.24
2022-10-09T18:21:48.314Z,65.32
2022-10-09T18:24:15.527Z,65.25
2022-10-09T18:26:42.948Z,65.41
2022-10-09T18:29:10.036Z,65.29
2022-10-09T18:31:38.584Z,65.34
2022-10-09T18:34:06.007Z,65.28
2022-10-09T18:36:34.577Z,65.69
2022-10-09T18:39:12.106Z,65.86
2022-10-09T18:41:39.531Z,65.95
2022-10-09T18:44:12.518Z,65.97
2022-10-09T18:46:44.943Z,66.16
2022-10-09T18:49:14.208Z,66.22
2022-10-09T18:51:43.435Z,65.88
2022-10-09T18:54:17.083Z,65.95
2022-10-09T18:56:45.017Z,66.06
2022-10-09T18:59:17.725Z,66.63
2022-10-09T19:01:44.916Z,66.37
2022-10-09T19:04:12.208Z,66.40
2022-10-09T19:06:39.366Z,66.46
2022-10-09T19:09:06.651Z,66.65
2022-10-09T19:11:34.968Z,66.39
2022-10-09T19:14:03.238Z,66.53
2022-10-09T19:16:33.627Z,66.58
2022-10-09T19:19:01.288Z,66.49
2022-10-09T19:21:28.548Z,66.70
2022-10-09T19:23:55.799Z,66.73
2022-10-09T19:26:24.906Z,66.40
2022-10-09T19:28:52.178Z,66.50
2022-10-09T19:31:19.411Z,66.66
2022-10-09T19:33:46.696Z,66.74
2022-10-09T19:36:14.888Z,66.99
2022-10-09T19:38:42.349Z,67.00
2022-10-09T19:41:15.566Z,67.03
2022-10-09T19:43:43.040Z,67.46
2022-10-09T19:46:17.119Z,67.04
2022-10-09T19:48:45.834Z,67.45
2022-10-09T19:51:22.676Z,67.42
2022-10-09T19:53:52.102Z,67.59
2022-10-09T19:56:24.465Z,67.57
2022-10-09T19:58:52.230Z,67.74
2022-10-09T20:01:26.199Z,67.58
2022-10-09T20:03:59.564Z,67.52
2022-10-09T20:06:27.590Z,67.46
2022-10-09T20:08:55.393Z,67.52
2022-10-09T20:11:23.325Z,67.50
2022-10-09T20:13:55.495Z,67.21
2022-10-09T20:16:24.586Z,67.48
2022-10-09T20:18:51.713Z,67.91
2022-10-09T20:21:18.995Z,67.97
2022-10-09T20:23:46.046Z,67.86
2022-10-09T20:26:17.928Z,67.75
2022-10-09T20:28:46.605Z,67.84
2022-10-09T20:31:21.038Z,67.78
2022-10-09T20:33:49.638Z,67.98
2022-10-09T20:36:34.947Z,68.15
2022-10-09T20:39:06.554Z,68.13
2022-10-09T20:41:34.854Z,68.57
2022-10-09T20:44:04.012Z,68.38
2022-10-09T20:46:33.724Z,68.41
2022-10-09T20:49:05.068Z,68.61
2022-10-09T20:51:34.499Z,68.52
2022-10-09T20:54:02.361Z,68.64
2022-10-09T20:56:32.230Z,68.98
2022-10-09T20:59:00.340Z,68.91
2022-10-09T21:01:28.791Z,69.13
2022-10-09T21:03:57.492Z,69.27
2022-10-09T21:06:24.963Z,69.17
2022-10-09T21:08:52.141Z,69.02
2022-10-09T21:11:19.902Z,69.01
2022-10-09T21:13:48.535Z,68.92
2022-10-09T21:16:22.716Z,68.92
2022-10-09T21:18:59.066Z,68.87
2022-10-09T21:21:27.212Z,68.74
2022-10-09T21:23:57.334Z,69.23
2022-10-09T21:26:25.224Z,69.03
2022-10-09T21:28:56.905Z,68.82
2022-10-09T21:31:28.926Z,69.39
2022-10-09T21:33:56.660Z,69.06
2022-10-09T21:37:08.803Z,69.43
2022-10-09T21:39:33.950Z,69.32
2022-10-09T21:42:00.934Z,69.25
2022-10-09T21:44:27.897Z,69.19
2022-10-09T21:46:54.894Z,69.09
2022-10-09T21:49:28.050Z,69.09
2022-10-09T21:51:55.568Z,69.28
2022-10-09T21:54:23.045Z,69.46
2022-10-09T21:56:50.269Z,69.62
2022-10-09T21:59:17.512Z,69.38
2022-10-09T22:01:44.740Z,69.35
2022-10-09T22:04:11.740Z,69.56
2022-10-09T22:06:38.807Z,69.48
2022-10-09T22:09:05.793Z,69.35
2022-10-09T22:11:32.767Z,69.57
2022-10-09T22:14:00.116Z,69.59
2022-10-09T22:16:27.189Z,69.48
2022-10-09T22:18:54.304Z,69.67
2022-10-09T22:21:22.923Z,69.41
2022-10-09T22:23:50.485Z,69.68
2022-10-09T22:26:21.715Z,69.39
2022-10-09T22:28:49.774Z,69.54
2022-10-09T22:31:23.431Z,69.90
2022-10-09T22:34:00.034Z,69.56
2022-10-09T22:36:31.628Z,69.62
2022-10-09T22:39:02.591Z,69.43
2022-10-09T22:41:30.903Z,69.55
2022-10-09T22:44:00.220Z,69.83
2022-10-09T22:46:40.887Z,69.88
2022-10-09T22:49:11.196Z,69.78
2022-10-09T22:51:38.266Z,69.66
2022-10-09T22:54:05.903Z,70.17
2022-10-09T22:56:39.770Z,69.77
2022-10-09T22:59:09.450Z,69.73
2022-10-09T23:01:51.404Z,69.93
2022-10-09T23:04:19.674Z,70.02
2022-10-09T23:06:52.342Z,70.05
2022-10-09T23:09:22.506Z,69.94
2022-10-09T23:11:50.056Z,70.15
2022-10-09T23:14:17.441Z,70.11
2022-10-09T23:16:44.850Z,70.45
2022-10-09T23:19:12.746Z,70.21
2022-10-09T23:21:41.863Z,70.13
2022-10-09T23:24:15.255Z,70.11
2022-10-09T23:26:42.223Z,70.50
2022-10-09T23:29:15.460Z,70.19
2022-10-09T23:31:43.199Z,70.47
2022-10-09T23:34:10.953Z,70.10
2022-10-09T23:36:38.417Z,70.40
2022-10-09T23:39:06.961Z,70.45
2022-10-09T23:41:34.572Z,70.52
2022-10-09T23:44:01.673Z,70.40
2022-10-09T23:46:35.562Z,70.15
2022-10-09T23:49:05.083Z,70.53
2022-10-09T23:51:34.115Z,70.25
2022-10-09T23:54:01.147Z,70.20
2022-10-09T23:56:35.136Z,70.04
2022-10-09T23:59:07.972Z,70.43
